createdAt,value
2016-10-15T00:00:05.022Z,0
2016-10-15T00:01:05.287Z,0
2016-10-15T00:02:05.559Z,0
2016-10-15T00:03:05.209Z,0
2016-10-15T00:04:05.177Z,0
2016-10-15T00:05:05.134Z,0
2016-10-15T00:06:04.792Z,0
2016-10-15T00:07:05.057Z,0
2016-10-15T00:08:05.014Z,0
2016-10-15T00:09:05.306Z,0
2016-10-15T00:10:04.951Z,0
2016-10-15T00:11:04.909Z,0
2016-10-15T00:12:05.172Z,0
2016-10-15T00:13:05.137Z,0
2016-10-15T00:14:05.138Z,0
2016-10-15T00:15:04.750Z,0
2016-10-15T00:16:05.018Z,0
2016-10-15T00:17:04.678Z,0
2016-10-15T00:18:04.950Z,0
2016-10-15T00:19:04.602Z,0
2016-10-15T00:20:04.560Z,0
2016-10-15T00:21:04.229Z,0
2016-10-15T00:22:04.802Z,0
2016-10-15T00:23:04.757Z,0
2016-10-15T00:24:04.711Z,0
2016-10-15T00:25:04.374Z,0
2016-10-15T00:26:04.639Z,0
2016-10-15T00:27:04.623Z,0
2016-10-15T00:28:03.957Z,0
2016-10-15T00:29:04.213Z,0
2016-10-15T00:30:04.488Z,0
2016-10-15T00:31:04.139Z,0
2016-10-15T00:32:04.405Z,0
2016-10-15T00:33:04.368Z,0
2016-10-15T00:34:04.020Z,0
2016-10-15T00:35:03.989Z,0
2016-10-15T00:36:03.941Z,0
2016-10-15T00:37:03.911Z,0
2016-10-15T00:38:04.177Z,0
2016-10-15T00:39:03.830Z,0
2016-10-15T00:40:04.093Z,0
2016-10-15T00:41:04.063Z,0
2016-10-15T00:42:04.029Z,0
2016-10-15T00:43:03.372Z,0
2016-10-15T00:44:03.943Z,0
2016-10-15T00:45:03.606Z,0
2016-10-15T00:46:03.272Z,0
2016-10-15T00:47:03.828Z,0
2016-10-15T00:48:03.791Z,0
2016-10-15T00:49:03.450Z,0
2016-10-15T00:50:03.415Z,0
2016-10-15T00:51:03.376Z,0
2016-10-15T00:52:03.639Z,0
2016-10-15T00:53:03.305Z,0
2016-10-15T00:54:03.556Z,0
2016-10-15T00:55:03.541Z,0
2016-10-15T00:56:03.179Z,0
2016-10-15T00:57:02.840Z,0
2016-10-15T00:58:03.407Z,0
2016-10-15T00:59:03.067Z,0
2016-10-15T01:00:03.032Z,0
2016-10-15T01:01:03.292Z,0
2016-10-15T01:02:03.257Z,0
2016-10-15T01:03:03.211Z,0
2016-10-15T01:04:03.185Z,0
2016-10-15T01:05:03.138Z,0
2016-10-15T01:06:03.103Z,0
2016-10-15T01:07:03.064Z,0
2016-10-15T01:08:03.022Z,0
2016-10-15T01:09:02.987Z,0
2016-10-15T01:10:02.953Z,0
2016-10-15T01:11:02.614Z,0
2016-10-15T01:12:02.564Z,0
2016-10-15T01:13:02.530Z,0
2016-10-15T01:14:02.182Z,0
2016-10-15T01:15:02.754Z,0
2016-10-15T01:16:02.417Z,0
2016-10-15T01:17:02.682Z,0
2016-10-15T01:18:02.641Z,0
2016-10-15T01:19:02.601Z,0
2016-10-15T01:20:02.562Z,0
2016-10-15T01:21:02.527Z,0
2016-10-15T01:22:02.493Z,0
2016-10-15T01:23:02.144Z,0
2016-10-15T01:24:02.108Z,0
2016-10-15T01:25:02.371Z,0
2016-10-15T01:26:01.732Z,0
2016-10-15T01:27:02.298Z,0
2016-10-15T01:28:02.485Z,0
2016-10-15T01:29:02.220Z,0
2016-10-15T01:30:01.880Z,0
2016-10-15T01:31:01.841Z,0
2016-10-15T01:32:02.107Z,0
2016-10-15T01:33:02.075Z,0
2016-10-15T01:34:01.729Z,0
2016-10-15T01:35:01.388Z,0
2016-10-15T01:36:01.649Z,0
2016-10-15T01:37:01.919Z,0
2016-10-15T01:38:01.587Z,0
2016-10-15T01:39:01.847Z,0
2016-10-15T01:40:01.515Z,0
2016-10-15T01:41:01.770Z,0
2016-10-15T01:42:01.727Z,0
2016-10-15T01:43:01.079Z,0
2016-10-15T01:44:01.345Z,0
2016-10-15T01:45:01.302Z,0
2016-10-15T01:46:01.575Z,0
2016-10-15T01:47:01.230Z,0
2016-10-15T01:48:00.907Z,0
2016-10-15T01:49:01.453Z,0
2016-10-15T01:50:01.418Z,0
2016-10-15T01:51:01.380Z,0
2016-10-15T01:52:01.343Z,0
2016-10-15T01:53:01.300Z,0
2016-10-15T01:54:00.962Z,0
2016-10-15T01:55:01.247Z,0
2016-10-15T01:56:00.890Z,0
2016-10-15T01:57:00.854Z,0
2016-10-15T01:58:01.112Z,0
2016-10-15T01:59:00.468Z,0
2016-10-15T02:00:00.730Z,0
2016-10-15T02:01:00.693Z,0
2016-10-15T02:02:00.656Z,0
2016-10-15T02:03:00.922Z,0
2016-10-15T02:04:00.886Z,0
2016-10-15T02:05:00.558Z,0
2016-10-15T02:06:00.198Z,0
2016-10-15T02:07:00.760Z,0
2016-10-15T02:08:00.427Z,0
2016-10-15T02:09:00.380Z,0
2016-10-15T02:10:00.650Z,0
2016-10-15T02:11:00.613Z,0
2016-10-15T02:12:00.572Z,0
2016-10-15T02:13:00.231Z,0
2016-10-15T02:13:59.895Z,0
2016-10-15T02:15:00.157Z,0
2016-10-15T02:16:00.416Z,0
2016-10-15T02:17:00.083Z,0
2016-10-15T02:18:00.335Z,0
2016-10-15T02:19:00.005Z,0
2016-10-15T02:20:00.265Z,0
2016-10-15T02:21:00.226Z,0
2016-10-15T02:21:59.889Z,0
2016-10-15T02:22:59.845Z,0
2016-10-15T02:24:00.116Z,0
2016-10-15T02:25:00.085Z,0
2016-10-15T02:25:59.729Z,0
2016-10-15T02:26:59.391Z,0
2016-10-15T02:27:59.955Z,0
2016-10-15T02:28:59.929Z,0
2016-10-15T02:29:59.580Z,0
2016-10-15T02:30:59.834Z,0
2016-10-15T02:31:59.804Z,0
2016-10-15T02:32:59.462Z,0
2016-10-15T02:33:59.431Z,0
2016-10-15T02:34:59.398Z,0
2016-10-15T02:35:59.348Z,0
2016-10-15T02:36:59.607Z,0
2016-10-15T02:38:14.166Z,0
2016-10-15T02:38:59.228Z,0
2016-10-15T02:39:59.486Z,0
2016-10-15T02:40:58.847Z,0
2016-10-15T02:41:59.415Z,0
2016-10-15T02:42:59.073Z,0
2016-10-15T02:43:59.033Z,0
2016-10-15T02:44:59.294Z,0
2016-10-15T02:45:59.260Z,0
2016-10-15T02:46:59.217Z,0
2016-10-15T02:47:59.182Z,0
2016-10-15T02:48:59.139Z,0
2016-10-15T02:49:59.106Z,0
2016-10-15T02:50:58.766Z,0
2016-10-15T02:51:59.032Z,0
2016-10-15T02:52:58.994Z,0
2016-10-15T02:53:58.950Z,0
2016-10-15T02:54:58.608Z,0
2016-10-15T02:55:58.573Z,0
2016-10-15T02:56:58.835Z,0
2016-10-15T02:57:58.790Z,0
2016-10-15T02:58:58.466Z,0
2016-10-15T02:59:58.113Z,0
2016-10-15T03:00:58.382Z,0
2016-10-15T03:01:58.632Z,0
2016-10-15T03:02:58.598Z,0
2016-10-15T03:03:58.794Z,0
2016-10-15T03:04:58.522Z,0
2016-10-15T03:05:58.181Z,0
2016-10-15T03:06:58.141Z,0
2016-10-15T03:07:58.109Z,0
2016-10-15T03:08:58.064Z,0
2016-10-15T03:09:57.722Z,0
2016-10-15T03:10:58.316Z,0
2016-10-15T03:11:57.948Z,0
2016-10-15T03:12:57.613Z,0
2016-10-15T03:13:57.567Z,0
2016-10-15T03:14:58.139Z,0
2016-10-15T03:15:58.094Z,0
2016-10-15T03:16:58.066Z,0
2016-10-15T03:17:57.422Z,0
2016-10-15T03:18:57.691Z,0
2016-10-15T03:19:57.940Z,0
2016-10-15T03:20:57.907Z,0
2016-10-15T03:21:57.557Z,0
2016-10-15T03:22:57.829Z,0
2016-10-15T03:23:57.781Z,0
2016-10-15T03:24:57.742Z,0
2016-10-15T03:25:57.702Z,0
2016-10-15T03:26:57.366Z,0
2016-10-15T03:27:57.625Z,0
2016-10-15T03:28:56.986Z,0
2016-10-15T03:29:57.547Z,0
2016-10-15T03:30:56.906Z,0
2016-10-15T03:31:57.179Z,0
2016-10-15T03:32:57.445Z,0
2016-10-15T03:33:57.088Z,0
2016-10-15T03:34:57.056Z,0
2016-10-15T03:35:57.017Z,0
2016-10-15T03:36:56.986Z,0
2016-10-15T03:37:57.243Z,0
2016-10-15T03:38:57.198Z,0
2016-10-15T03:39:57.164Z,0
2016-10-15T03:40:56.820Z,0
2016-10-15T03:41:56.786Z,0
2016-10-15T03:42:57.049Z,0
2016-10-15T03:43:56.407Z,0
2016-10-15T03:44:56.969Z,0
2016-10-15T03:45:56.623Z,0
2016-10-15T03:46:56.590Z,0
2016-10-15T03:47:56.853Z,0
2016-10-15T03:48:56.813Z,0
2016-10-15T03:49:56.776Z,0
2016-10-15T03:50:56.438Z,0
2016-10-15T03:51:56.395Z,0
2016-10-15T03:52:56.355Z,0
2016-10-15T03:53:56.320Z,0
2016-10-15T03:54:56.584Z,0
2016-10-15T03:55:55.636Z,0
2016-10-15T03:56:56.509Z,0
2016-10-15T03:57:56.168Z,0
2016-10-15T03:58:56.133Z,0
2016-10-15T03:59:56.092Z,0
2016-10-15T04:00:56.345Z,0
2016-10-15T04:01:56.310Z,0
2016-10-15T04:02:56.277Z,0
2016-10-15T04:03:56.239Z,0
2016-10-15T04:04:55.892Z,0
2016-10-15T04:05:56.159Z,0
2016-10-15T04:06:55.819Z,0
2016-10-15T04:07:55.780Z,0
2016-10-15T04:08:55.434Z,0
2016-10-15T04:09:55.999Z,0
2016-10-15T04:10:55.965Z,0
2016-10-15T04:11:55.618Z,0
2016-10-15T04:12:55.885Z,0
2016-10-15T04:13:55.554Z,0
2016-10-15T04:14:55.807Z,0
2016-10-15T04:15:55.470Z,0
2016-10-15T04:16:55.425Z,0
2016-10-15T04:17:55.697Z,0
2016-10-15T04:18:55.659Z,0
2016-10-15T04:19:55.612Z,0
2016-10-15T04:20:55.276Z,0
2016-10-15T04:21:55.535Z,0
2016-10-15T04:22:55.494Z,0
2016-10-15T04:23:55.458Z,0
2016-10-15T04:24:55.116Z,0
2016-10-15T04:25:55.377Z,0
2016-10-15T04:26:54.433Z,0
2016-10-15T04:27:55.303Z,0
2016-10-15T04:28:54.976Z,0
2016-10-15T04:29:55.227Z,0
2016-10-15T04:30:54.889Z,0
2016-10-15T04:31:54.841Z,0
2016-10-15T04:32:54.823Z,0
2016-10-15T04:33:55.065Z,0
2016-10-15T04:34:55.033Z,0
2016-10-15T04:35:54.690Z,0
2016-10-15T04:36:54.960Z,0
2016-10-15T04:37:54.926Z,0
2016-10-15T04:38:54.882Z,0
2016-10-15T04:39:54.536Z,0
2016-10-15T04:40:54.494Z,0
2016-10-15T04:41:54.457Z,0
2016-10-15T04:42:54.429Z,0
2016-10-15T04:43:54.679Z,0
2016-10-15T04:44:54.644Z,0
2016-10-15T04:45:54.302Z,0
2016-10-15T04:46:54.263Z,0
2016-10-15T04:47:54.530Z,0
2016-10-15T04:48:54.185Z,0
2016-10-15T04:49:53.859Z,0
2016-10-15T04:50:54.413Z,0
2016-10-15T04:51:54.371Z,0
2016-10-15T04:52:54.031Z,0
2016-10-15T04:53:54.292Z,0
2016-10-15T04:54:53.952Z,0
2016-10-15T04:55:54.214Z,0
2016-10-15T04:56:54.177Z,0
2016-10-15T04:57:53.833Z,0
2016-10-15T04:58:53.801Z,0
2016-10-15T04:59:53.759Z,0
2016-10-15T05:00:53.715Z,0
2016-10-15T05:01:53.378Z,0
2016-10-15T05:02:53.339Z,0
2016-10-15T05:03:53.912Z,0
2016-10-15T05:04:53.867Z,0
2016-10-15T05:05:53.828Z,0
2016-10-15T05:06:53.783Z,0
2016-10-15T05:07:52.846Z,0
2016-10-15T05:08:53.405Z,0
2016-10-15T05:09:53.392Z,0
2016-10-15T05:10:53.634Z,0
2016-10-15T05:11:53.595Z,0
2016-10-15T05:12:53.258Z,0
2016-10-15T05:13:53.520Z,4
2016-10-15T05:14:53.481Z,4
2016-10-15T05:15:53.438Z,4
2016-10-15T05:16:52.793Z,0
2016-10-15T05:17:53.359Z,4
2016-10-15T05:18:53.023Z,4
2016-10-15T05:19:52.980Z,4
2016-10-15T05:20:53.249Z,8
2016-10-15T05:21:52.597Z,8
2016-10-15T05:22:53.182Z,8
2016-10-15T05:23:52.826Z,12
2016-10-15T05:24:53.101Z,16
2016-10-15T05:25:52.777Z,20
2016-10-15T05:26:53.013Z,20
2016-10-15T05:27:52.975Z,24
2016-10-15T05:28:52.333Z,28
2016-10-15T05:29:52.901Z,32
2016-10-15T05:30:52.858Z,40
2016-10-15T05:31:52.813Z,44
2016-10-15T05:32:52.482Z,48
2016-10-15T05:33:52.453Z,56
2016-10-15T05:34:52.707Z,64
2016-10-15T05:35:52.669Z,68
2016-10-15T05:36:52.630Z,76
2016-10-15T05:37:52.283Z,84
2016-10-15T05:38:52.252Z,96
2016-10-15T05:39:52.206Z,108
2016-10-15T05:40:52.472Z,132
2016-10-15T05:41:52.126Z,168
2016-10-15T05:42:52.096Z,216
2016-10-15T05:43:52.060Z,256
2016-10-15T05:44:52.321Z,276
2016-10-15T05:45:51.674Z,288
2016-10-15T05:46:52.242Z,316
2016-10-15T05:47:52.209Z,348
2016-10-15T05:48:51.860Z,384
2016-10-15T05:49:51.819Z,444
2016-10-15T05:50:52.105Z,500
2016-10-15T05:51:52.081Z,528
2016-10-15T05:52:51.410Z,580
2016-10-15T05:53:51.669Z,672
2016-10-15T05:54:51.942Z,784
2016-10-15T05:55:51.613Z,896
2016-10-15T05:56:51.246Z,936
2016-10-15T05:57:51.815Z,968
2016-10-15T05:58:51.779Z,1052
2016-10-15T05:59:51.738Z,1212
2016-10-15T06:00:51.409Z,1312
2016-10-15T06:01:51.369Z,1192
2016-10-15T06:02:51.326Z,1200
2016-10-15T06:03:51.585Z,1352
2016-10-15T06:04:51.563Z,1372
2016-10-15T06:05:51.507Z,1436
2016-10-15T06:06:51.172Z,1344
2016-10-15T06:07:51.442Z,1404
2016-10-15T06:08:51.400Z,1436
2016-10-15T06:09:51.364Z,1452
2016-10-15T06:10:51.322Z,1452
2016-10-15T06:11:51.279Z,1440
2016-10-15T06:12:51.259Z,1436
2016-10-15T06:13:51.206Z,1424
2016-10-15T06:14:50.873Z,1412
2016-10-15T06:15:51.130Z,1400
2016-10-15T06:16:50.786Z,1388
2016-10-15T06:17:50.754Z,1380
2016-10-15T06:18:50.410Z,1388
2016-10-15T06:19:50.978Z,1412
2016-10-15T06:20:50.939Z,1448
2016-10-15T06:21:50.908Z,1496
2016-10-15T06:22:50.867Z,1524
2016-10-15T06:23:50.530Z,1528
2016-10-15T06:24:50.488Z,1536
2016-10-15T06:25:50.750Z,1560
2016-10-15T06:26:50.414Z,1604
2016-10-15T06:27:50.373Z,1648
2016-10-15T06:28:50.641Z,1700
2016-10-15T06:29:50.294Z,1764
2016-10-15T06:30:50.560Z,1836
2016-10-15T06:31:50.541Z,1908
2016-10-15T06:32:50.199Z,1960
2016-10-15T06:33:50.146Z,1996
2016-10-15T06:34:50.415Z,2016
2016-10-15T06:35:49.779Z,2048
2016-10-15T06:36:50.037Z,2112
2016-10-15T06:37:50.000Z,2200
2016-10-15T06:38:50.261Z,2336
2016-10-15T06:39:49.923Z,2516
2016-10-15T06:40:49.575Z,2708
2016-10-15T06:41:50.146Z,2900
2016-10-15T06:42:50.119Z,3072
2016-10-15T06:43:50.073Z,3184
2016-10-15T06:44:50.039Z,3256
2016-10-15T06:45:49.388Z,3268
2016-10-15T06:46:49.962Z,3300
2016-10-15T06:47:49.917Z,3352
2016-10-15T06:48:49.882Z,3468
2016-10-15T06:49:49.545Z,3564
2016-10-15T06:50:49.511Z,3656
2016-10-15T06:51:49.785Z,3656
2016-10-15T06:52:49.745Z,3656
2016-10-15T06:53:49.400Z,3624
2016-10-15T06:54:49.353Z,3564
2016-10-15T06:55:49.316Z,3516
2016-10-15T06:56:49.583Z,3540
2016-10-15T06:57:49.548Z,3632
2016-10-15T06:58:48.905Z,3768
2016-10-15T06:59:49.164Z,3868
2016-10-15T07:00:49.435Z,3900
2016-10-15T07:01:49.093Z,3932
2016-10-15T07:02:49.054Z,4092
2016-10-15T07:03:49.020Z,4300
2016-10-15T07:04:48.988Z,4456
2016-10-15T07:05:49.250Z,4500
2016-10-15T07:06:49.209Z,4436
2016-10-15T07:07:48.922Z,4288
2016-10-15T07:08:48.841Z,4180
2016-10-15T07:09:49.099Z,4080
2016-10-15T07:10:49.072Z,4000
2016-10-15T07:11:48.723Z,3896
2016-10-15T07:12:48.984Z,3780
2016-10-15T07:13:48.947Z,3644
2016-10-15T07:14:48.616Z,3536
2016-10-15T07:15:48.585Z,3508
2016-10-15T07:16:48.534Z,3548
2016-10-15T07:17:48.813Z,3580
2016-10-15T07:18:48.766Z,3584
2016-10-15T07:19:48.733Z,3620
2016-10-15T07:20:48.084Z,3708
2016-10-15T07:21:48.655Z,3804
2016-10-15T07:22:48.315Z,3940
2016-10-15T07:23:48.275Z,4084
2016-10-15T07:24:48.544Z,4120
2016-10-15T07:25:48.508Z,4172
2016-10-15T07:26:48.175Z,4196
2016-10-15T07:27:48.429Z,4148
2016-10-15T07:28:48.399Z,4104
2016-10-15T07:29:48.056Z,4036
2016-10-15T07:30:48.321Z,3952
2016-10-15T07:31:48.291Z,3868
2016-10-15T07:32:48.248Z,3852
2016-10-15T07:33:47.625Z,3864
2016-10-15T07:34:48.179Z,3912
2016-10-15T07:35:48.135Z,3952
2016-10-15T07:36:48.103Z,3996
2016-10-15T07:37:48.072Z,4072
2016-10-15T07:38:47.725Z,4112
2016-10-15T07:39:47.995Z,4160
2016-10-15T07:40:47.951Z,4160
2016-10-15T07:41:47.917Z,4132
2016-10-15T07:42:47.878Z,4088
2016-10-15T07:43:47.846Z,4080
2016-10-15T07:44:47.504Z,4132
2016-10-15T07:45:47.473Z,4216
2016-10-15T07:46:47.433Z,4352
2016-10-15T07:47:47.395Z,4636
2016-10-15T07:48:47.361Z,4968
2016-10-15T07:49:47.023Z,5216
2016-10-15T07:50:46.683Z,5440
2016-10-15T07:51:47.267Z,5736
2016-10-15T07:52:47.213Z,6048
2016-10-15T07:53:47.183Z,6284
2016-10-15T07:54:46.837Z,6616
2016-10-15T07:55:46.808Z,7000
2016-10-15T07:56:47.068Z,7328
2016-10-15T07:57:47.034Z,7484
2016-10-15T07:58:47.306Z,7356
2016-10-15T07:59:46.960Z,7032
2016-10-15T08:00:47.229Z,6752
2016-10-15T08:01:46.583Z,6572
2016-10-15T08:02:47.159Z,6432
2016-10-15T08:03:47.120Z,6280
2016-10-15T08:04:46.483Z,5988
2016-10-15T08:05:47.047Z,5652
2016-10-15T08:06:47.014Z,5312
2016-10-15T08:07:46.678Z,5064
2016-10-15T08:08:46.941Z,4852
2016-10-15T08:09:46.300Z,4600
2016-10-15T08:10:46.867Z,4396
2016-10-15T08:11:45.930Z,4180
2016-10-15T08:12:46.791Z,3936
2016-10-15T08:13:46.461Z,3676
2016-10-15T08:14:46.429Z,3440
2016-10-15T08:15:46.695Z,3236
2016-10-15T08:16:46.353Z,3076
2016-10-15T08:17:46.615Z,2924
2016-10-15T08:18:46.593Z,2788
2016-10-15T08:19:46.548Z,2708
2016-10-15T08:20:46.554Z,2688
2016-10-15T08:21:45.871Z,2720
2016-10-15T08:22:46.145Z,2800
2016-10-15T08:23:46.439Z,2932
2016-10-15T08:24:46.385Z,3068
2016-10-15T08:25:46.335Z,3236
2016-10-15T08:26:45.989Z,3396
2016-10-15T08:27:46.270Z,3508
2016-10-15T08:28:45.922Z,3500
2016-10-15T08:29:45.897Z,3404
2016-10-15T08:30:46.149Z,3328
2016-10-15T08:31:45.817Z,3360
2016-10-15T08:32:46.089Z,3428
2016-10-15T08:33:45.741Z,3460
2016-10-15T08:34:45.709Z,3528
2016-10-15T08:35:45.979Z,3544
2016-10-15T08:36:45.940Z,3516
2016-10-15T08:37:45.604Z,3428
2016-10-15T08:38:45.865Z,3372
2016-10-15T08:39:45.824Z,3344
2016-10-15T08:40:45.797Z,3304
2016-10-15T08:41:45.460Z,3248
2016-10-15T08:42:45.730Z,3200
2016-10-15T08:43:45.387Z,3176
2016-10-15T08:44:45.654Z,3144
2016-10-15T08:45:45.617Z,3104
2016-10-15T08:46:45.284Z,3088
2016-10-15T08:47:45.248Z,3080
2016-10-15T08:48:45.507Z,3104
2016-10-15T08:49:45.475Z,3208
2016-10-15T08:50:45.436Z,3356
2016-10-15T08:51:45.408Z,3492
2016-10-15T08:52:44.765Z,3612
2016-10-15T08:53:45.030Z,3620
2016-10-15T08:54:44.999Z,3512
2016-10-15T08:55:44.951Z,3284
2016-10-15T08:56:45.226Z,3164
2016-10-15T08:57:45.207Z,3140
2016-10-15T08:58:44.858Z,3152
2016-10-15T08:59:44.819Z,3076
2016-10-15T09:00:45.091Z,3028
2016-10-15T09:01:44.750Z,2948
2016-10-15T09:02:45.012Z,2900
2016-10-15T09:03:44.679Z,2824
2016-10-15T09:04:44.640Z,2772
2016-10-15T09:05:44.598Z,2728
2016-10-15T09:06:44.883Z,2692
2016-10-15T09:07:44.534Z,2676
2016-10-15T09:08:44.795Z,2640
2016-10-15T09:09:44.759Z,2616
2016-10-15T09:10:44.737Z,2640
2016-10-15T09:11:44.685Z,2716
2016-10-15T09:12:44.355Z,2848
2016-10-15T09:13:44.320Z,2996
2016-10-15T09:14:44.579Z,3144
2016-10-15T09:15:44.549Z,3276
2016-10-15T09:16:44.514Z,3448
2016-10-15T09:17:44.480Z,3676
2016-10-15T09:18:44.150Z,3980
2016-10-15T09:19:44.308Z,4304
2016-10-15T09:20:44.065Z,4612
2016-10-15T09:21:44.345Z,4920
2016-10-15T09:22:43.988Z,5068
2016-10-15T09:23:44.266Z,5092
2016-10-15T09:24:43.930Z,5004
2016-10-15T09:25:43.905Z,4864
2016-10-15T09:26:44.162Z,4740
2016-10-15T09:27:43.824Z,4628
2016-10-15T09:28:43.780Z,4384
2016-10-15T09:29:43.447Z,4084
2016-10-15T09:30:43.411Z,3868
2016-10-15T09:31:43.981Z,3808
2016-10-15T09:32:43.636Z,3828
2016-10-15T09:33:43.908Z,3852
2016-10-15T09:34:43.866Z,3852
2016-10-15T09:35:43.533Z,3832
2016-10-15T09:36:43.802Z,3812
2016-10-15T09:37:43.475Z,3804
2016-10-15T09:38:43.426Z,3832
2016-10-15T09:39:43.702Z,3976
2016-10-15T09:40:43.654Z,4148
2016-10-15T09:41:43.316Z,4296
2016-10-15T09:42:42.981Z,4420
2016-10-15T09:43:42.644Z,4564
2016-10-15T09:44:43.210Z,4772
2016-10-15T09:45:43.185Z,4908
2016-10-15T09:46:43.144Z,4912
2016-10-15T09:47:43.111Z,4836
2016-10-15T09:48:43.371Z,4720
2016-10-15T09:49:43.340Z,4536
2016-10-15T09:50:43.306Z,4440
2016-10-15T09:51:43.276Z,4460
2016-10-15T09:52:43.234Z,4476
2016-10-15T09:53:43.207Z,4536
2016-10-15T09:54:42.559Z,4644
2016-10-15T09:55:42.841Z,4772
2016-10-15T09:56:43.093Z,4808
2016-10-15T09:57:43.063Z,4748
2016-10-15T09:58:42.719Z,4704
2016-10-15T09:59:42.985Z,4780
2016-10-15T10:00:42.657Z,4900
2016-10-15T10:01:42.912Z,5056
2016-10-15T10:02:42.891Z,5188
2016-10-15T10:03:42.851Z,5324
2016-10-15T10:04:42.813Z,5444
2016-10-15T10:05:42.773Z,5464
2016-10-15T10:06:42.137Z,5484
2016-10-15T10:07:42.708Z,5640
2016-10-15T10:08:42.667Z,6020
2016-10-15T10:09:42.633Z,6656
2016-10-15T10:10:42.300Z,7364
2016-10-15T10:11:42.569Z,7972
2016-10-15T10:12:42.228Z,8492
2016-10-15T10:13:42.499Z,8920
2016-10-15T10:14:42.462Z,9172
2016-10-15T10:15:42.421Z,9324
2016-10-15T10:16:41.497Z,9336
2016-10-15T10:17:42.363Z,9336
2016-10-15T10:18:42.025Z,9096
2016-10-15T10:19:42.291Z,8592
2016-10-15T10:20:42.254Z,7912
2016-10-15T10:21:42.217Z,7296
2016-10-15T10:22:42.191Z,6768
2016-10-15T10:23:42.148Z,6536
2016-10-15T10:24:42.121Z,6592
2016-10-15T10:25:42.081Z,6436
2016-10-15T10:26:41.748Z,5924
2016-10-15T10:27:41.713Z,5276
2016-10-15T10:28:41.375Z,4936
2016-10-15T10:29:41.957Z,5160
2016-10-15T10:30:41.924Z,5756
2016-10-15T10:31:41.571Z,6312
2016-10-15T10:32:41.540Z,6724
2016-10-15T10:33:41.803Z,6792
2016-10-15T10:34:41.782Z,6580
2016-10-15T10:35:41.740Z,6364
2016-10-15T10:36:41.706Z,6276
2016-10-15T10:37:41.675Z,6300
2016-10-15T10:38:41.640Z,6616
2016-10-15T10:39:41.616Z,7300
2016-10-15T10:40:41.270Z,8160
2016-10-15T10:41:41.233Z,8840
2016-10-15T10:42:41.496Z,9020
2016-10-15T10:43:41.165Z,8920
2016-10-15T10:44:41.431Z,8840
2016-10-15T10:45:41.100Z,9016
2016-10-15T10:46:41.368Z,9316
2016-10-15T10:47:41.333Z,9588
2016-10-15T10:48:41.296Z,9760
2016-10-15T10:49:41.259Z,10004
2016-10-15T10:50:41.236Z,10348
2016-10-15T10:51:40.599Z,10912
2016-10-15T10:52:41.164Z,11680
2016-10-15T10:53:41.129Z,12520
2016-10-15T10:54:40.789Z,12872
2016-10-15T10:55:41.080Z,12700
2016-10-15T10:56:41.023Z,12728
2016-10-15T10:57:40.996Z,13580
2016-10-15T10:58:40.670Z,14704
2016-10-15T10:59:40.935Z,14492
2016-10-15T11:00:40.592Z,14368
2016-10-15T11:01:40.563Z,15172
2016-10-15T11:02:40.829Z,15980
2016-10-15T11:03:40.795Z,16708
2016-10-15T11:04:40.468Z,16252
2016-10-15T11:05:40.436Z,16100
2016-10-15T11:06:40.699Z,15932
2016-10-15T11:07:40.661Z,15952
2016-10-15T11:08:40.631Z,15824
2016-10-15T11:09:40.298Z,15824
2016-10-15T11:10:39.977Z,15696
2016-10-15T11:11:40.242Z,15308
2016-10-15T11:12:40.499Z,15148
2016-10-15T11:13:40.465Z,15336
2016-10-15T11:14:40.136Z,15768
2016-10-15T11:15:40.413Z,15952
2016-10-15T11:16:40.067Z,15732
2016-10-15T11:17:39.737Z,15552
2016-10-15T11:18:39.707Z,15804
2016-10-15T11:19:40.276Z,16068
2016-10-15T11:20:40.252Z,16400
2016-10-15T11:21:39.905Z,16468
2016-10-15T11:22:40.180Z,16696
2016-10-15T11:23:39.862Z,16676
2016-10-15T11:24:40.121Z,16636
2016-10-15T11:25:39.487Z,17120
2016-10-15T11:26:40.060Z,17696
2016-10-15T11:27:39.728Z,18048
2016-10-15T11:28:39.695Z,17568
2016-10-15T11:29:39.957Z,17952
2016-10-15T11:30:39.631Z,17696
2016-10-15T11:31:39.899Z,17184
2016-10-15T11:32:39.258Z,16116
2016-10-15T11:33:39.833Z,15356
2016-10-15T11:34:39.503Z,14796
2016-10-15T11:35:39.780Z,14788
2016-10-15T11:36:39.135Z,14756
2016-10-15T11:37:39.709Z,14780
2016-10-15T11:38:39.677Z,14808
2016-10-15T11:39:39.351Z,14732
2016-10-15T11:40:39.485Z,14496
2016-10-15T11:41:39.584Z,14420
2016-10-15T11:42:39.261Z,14612
2016-10-15T11:43:39.523Z,14532
2016-10-15T11:44:39.189Z,14196
2016-10-15T11:45:39.461Z,14008
2016-10-15T11:46:39.125Z,13928
2016-10-15T11:47:39.397Z,13972
2016-10-15T11:48:39.371Z,13968
2016-10-15T11:49:39.349Z,13988
2016-10-15T11:50:39.303Z,14236
2016-10-15T11:51:39.266Z,14232
2016-10-15T11:52:38.702Z,14336
2016-10-15T11:53:39.212Z,14132
2016-10-15T11:54:39.189Z,13888
2016-10-15T11:55:39.144Z,13796
2016-10-15T11:56:38.812Z,13668
2016-10-15T11:57:38.781Z,13892
2016-10-15T11:58:39.064Z,13808
2016-10-15T11:59:39.069Z,13688
2016-10-15T12:00:39.021Z,13476
2016-10-15T12:01:38.360Z,13532
2016-10-15T12:02:38.633Z,13616
2016-10-15T12:03:38.902Z,13700
2016-10-15T12:04:38.867Z,13608
2016-10-15T12:05:38.233Z,13500
2016-10-15T12:06:38.206Z,13316
2016-10-15T12:07:38.787Z,13424
2016-10-15T12:08:38.758Z,13468
2016-10-15T12:09:38.110Z,13452
2016-10-15T12:10:38.687Z,13256
2016-10-15T12:11:38.647Z,12940
2016-10-15T12:12:38.328Z,12712
2016-10-15T12:13:38.700Z,12584
2016-10-15T12:14:38.566Z,12388
2016-10-15T12:15:38.542Z,12236
2016-10-15T12:16:38.506Z,12268
2016-10-15T12:17:38.471Z,12180
2016-10-15T12:18:38.141Z,12028
2016-10-15T12:19:38.411Z,12080
2016-10-15T12:20:37.774Z,12304
2016-10-15T12:21:38.349Z,12536
2016-10-15T12:22:38.312Z,12716
2016-10-15T12:23:37.381Z,12664
2016-10-15T12:24:37.955Z,12776
2016-10-15T12:25:37.921Z,12600
2016-10-15T12:26:37.898Z,12704
2016-10-15T12:27:38.164Z,12844
2016-10-15T12:28:38.131Z,12716
2016-10-15T12:29:38.104Z,12588
2016-10-15T12:30:38.075Z,12472
2016-10-15T12:31:37.436Z,12344
2016-10-15T12:32:38.020Z,12584
2016-10-15T12:33:37.981Z,11924
2016-10-15T12:34:37.343Z,11468
2016-10-15T12:35:37.917Z,11244
2016-10-15T12:36:37.891Z,11112
2016-10-15T12:37:37.257Z,11064
2016-10-15T12:38:37.220Z,10928
2016-10-15T12:39:37.503Z,11016
2016-10-15T12:40:37.792Z,11044
2016-10-15T12:41:37.435Z,11124
2016-10-15T12:42:37.399Z,11268
2016-10-15T12:43:37.069Z,11596
2016-10-15T12:44:37.644Z,11660
2016-10-15T12:45:37.611Z,11732
2016-10-15T12:46:37.583Z,11568
2016-10-15T12:47:37.244Z,11600
2016-10-15T12:48:37.528Z,11588
2016-10-15T12:49:37.186Z,11308
2016-10-15T12:50:37.160Z,11236
2016-10-15T12:51:37.128Z,11508
2016-10-15T12:52:37.400Z,11696
2016-10-15T12:53:37.067Z,11388
2016-10-15T12:54:36.735Z,11072
2016-10-15T12:55:37.307Z,10900
2016-10-15T12:56:37.274Z,10708
2016-10-15T12:57:36.946Z,10444
2016-10-15T12:58:37.221Z,10552
2016-10-15T12:59:37.191Z,10520
2016-10-15T13:00:37.163Z,10488
2016-10-15T13:01:36.521Z,10540
2016-10-15T13:02:37.100Z,10324
2016-10-15T13:03:37.066Z,10436
2016-10-15T13:04:36.740Z,10696
2016-10-15T13:05:36.703Z,10692
2016-10-15T13:06:36.983Z,10724
2016-10-15T13:07:36.947Z,10720
2016-10-15T13:08:36.927Z,10716
2016-10-15T13:09:36.588Z,10736
2016-10-15T13:10:36.862Z,10704
2016-10-15T13:11:36.214Z,10600
2016-10-15T13:12:36.489Z,10724
2016-10-15T13:13:36.458Z,10612
2016-10-15T13:14:36.738Z,10468
2016-10-15T13:15:36.706Z,10456
2016-10-15T13:16:36.666Z,10584
2016-10-15T13:17:36.332Z,10688
2016-10-15T13:18:36.605Z,10640
2016-10-15T13:19:36.584Z,10724
2016-10-15T13:20:36.251Z,10704
2016-10-15T13:21:36.214Z,10328
2016-10-15T13:22:36.188Z,9980
2016-10-15T13:23:36.148Z,9748
2016-10-15T13:24:36.424Z,9556
2016-10-15T13:25:36.400Z,9508
2016-10-15T13:26:36.362Z,9632
2016-10-15T13:27:36.032Z,9724
2016-10-15T13:28:35.699Z,9600
2016-10-15T13:29:36.272Z,9452
2016-10-15T13:30:35.943Z,9288
2016-10-15T13:31:35.907Z,9080
2016-10-15T13:32:36.183Z,8756
2016-10-15T13:33:36.150Z,8504
2016-10-15T13:34:35.813Z,8400
2016-10-15T13:35:36.102Z,8208
2016-10-15T13:36:36.061Z,8004
2016-10-15T13:37:35.726Z,7796
2016-10-15T13:38:35.408Z,7640
2016-10-15T13:39:35.978Z,7636
2016-10-15T13:40:35.933Z,7592
2016-10-15T13:41:35.608Z,7284
2016-10-15T13:42:35.586Z,7036
2016-10-15T13:43:36.362Z,6828
2016-10-15T13:44:35.548Z,6760
2016-10-15T13:45:35.784Z,6948
2016-10-15T13:46:35.450Z,6920